Time;durP1;ratioP1;P1;durP2;ratioP2;P2;SDS_P1;SDS_P2;PMS_P1;PMS_P2;Temp;Humidity;BMP_temperature;BMP_pressure;BME280_temperature;BME280_humidity;BME280_pressure;Samples;Min_cycle;Max_cycle;Signal;HPM_P1;HPM_P2
2023/06/08 00:00:27;;;;;;;3.67;2.25;;;;;;;;;;5097685;28;20213;-61
2023/06/08 00:02:55;;;;;;;4.00;2.80;;;;;;;;;;5092926;28;20485;-61
2023/06/08 00:05:23;;;;;;;2.72;2.20;;;;;;;;;;5111701;28;20378;-61
2023/06/08 00:07:50;;;;;;;4.93;2.72;;;;;;;;;;5108385;28;20117;-61
2023/06/08 00:10:16;;;;;;;5.47;3.20;;;;;;;;;;5092354;28;20024;-61
2023/06/08 00:12:44;;;;;;;2.55;2.03;;;;;;;;;;5087603;28;20043;-61
2023/06/08 00:15:13;;;;;;;4.43;2.45;;;;;;;;;;5087209;28;20031;-61
2023/06/08 00:17:40;;;;;;;5.13;2.55;;;;;;;;;;5087014;28;20028;-61
2023/06/08 00:20:09;;;;;;;3.65;2.72;;;;;;;;;;5087734;28;20071;-61
2023/06/08 00:22:36;;;;;;;3.75;2.10;;;;;;;;;;5090858;28;20060;-61
2023/06/08 00:25:04;;;;;;;3.10;2.35;;;;;;;;;;5092242;28;20039;-61
2023/06/08 00:27:31;;;;;;;6.38;2.05;;;;;;;;;;5094215;28;20119;-61
2023/06/08 00:29:58;;;;;;;3.33;2.28;;;;;;;;;;5092183;28;20085;-61
2023/06/08 00:32:24;;;;;;;3.28;2.20;;;;;;;;;;5092584;28;20093;-61
2023/06/08 00:34:51;;;;;;;3.22;2.17;;;;;;;;;;5101546;28;20046;-61
2023/06/08 00:37:18;;;;;;;3.00;1.90;;;;;;;;;;5093623;28;20074;-61
2023/06/08 00:39:45;;;;;;;3.33;2.35;;;;;;;;;;5090829;28;20040;-61
2023/06/08 00:42:11;;;;;;;5.30;2.80;;;;;;;;;;5102258;28;20458;-62
2023/06/08 00:44:38;;;;;;;3.50;2.08;;;;;;;;;;5109524;28;20535;-62
2023/06/08 00:47:05;;;;;;;3.90;2.75;;;;;;;;;;5114157;28;20024;-61
2023/06/08 00:49:33;;;;;;;4.90;2.92;;;;;;;;;;5115919;28;20035;-61
2023/06/08 00:52:01;;;;;;;5.03;3.28;;;;;;;;;;5115588;28;20028;-61
2023/06/08 00:54:30;;;;;;;7.03;2.92;;;;;;;;;;5116346;28;20012;-61
2023/06/08 00:57:00;;;;;;;3.15;2.17;;;;;;;;;;5111107;28;20470;-61
2023/06/08 00:59:31;;;;;;;6.10;2.83;;;;;;;;;;5102184;28;20089;-61
2023/06/08 01:01:58;;;;;;;4.53;2.90;;;;;;;;;;5090435;28;20048;-61
2023/06/08 01:04:26;;;;;;;2.92;1.90;;;;;;;;;;5090500;28;20032;-61
2023/06/08 01:07:14;;;;;;;3.03;2.20;;;;;;;;;;5096773;28;20028;-61
2023/06/08 01:10:06;;;;;;;4.00;2.35;;;;;;;;;;5097869;28;20088;-62
2023/06/08 01:12:41;;;;;;;4.28;2.70;;;;;;;;;;5111161;28;20058;-61
2023/06/08 01:15:07;;;;;;;;;;;;;;;;;;5098017;28;20027;-61
2023/06/08 01:17:40;;;;;;;3.83;2.53;;;;;;;;;;5108622;28;19911;-61
2023/06/08 01:20:16;;;;;;;18.58;2.97;;;;;;;;;;5090675;28;20044;-62
2023/06/08 01:23:00;;;;;;;4.78;2.85;;;;;;;;;;5090415;28;20034;-61
2023/06/08 01:25:30;;;;;;;3.70;2.78;;;;;;;;;;5090137;28;20100;-61
2023/06/08 01:28:11;;;;;;;5.00;3.47;;;;;;;;;;5098480;28;20031;-61
2023/06/08 01:30:39;;;;;;;5.83;3.60;;;;;;;;;;5100469;28;20032;-61
2023/06/08 01:33:06;;;;;;;6.70;3.57;;;;;;;;;;5098656;28;20028;-61
2023/06/08 01:35:33;;;;;;;3.45;2.45;;;;;;;;;;5112405;28;20028;-62
2023/06/08 01:38:04;;;;;;;3.23;2.30;;;;;;;;;;5101422;28;20081;-62
2023/06/08 01:40:35;;;;;;;12.53;3.57;;;;;;;;;;5094871;28;20036;-61
2023/06/08 01:43:03;;;;;;;4.80;3.30;;;;;;;;;;5091599;28;20064;-61
2023/06/08 01:45:33;;;;;;;5.17;3.40;;;;;;;;;;5099356;28;20039;-61
2023/06/08 01:48:04;;;;;;;5.13;3.33;;;;;;;;;;5098522;28;20024;-61
2023/06/08 01:50:32;;;;;;;4.93;2.90;;;;;;;;;;5089662;28;20036;-61
2023/06/08 01:52:58;;;;;;;4.17;3.17;;;;;;;;;;5094259;28;20023;-61
2023/06/08 01:55:27;;;;;;;5.67;3.43;;;;;;;;;;5094543;28;20032;-61
2023/06/08 01:57:55;;;;;;;6.57;3.47;;;;;;;;;;5108786;28;20027;-61
2023/06/08 02:00:21;;;;;;;4.70;2.97;;;;;;;;;;5114520;28;20040;-61
2023/06/08 02:02:48;;;;;;;4.63;2.80;;;;;;;;;;5099677;28;20063;-62
2023/06/08 02:05:16;;;;;;;3.37;2.30;;;;;;;;;;5093315;28;20031;-61
2023/06/08 02:07:43;;;;;;;2.77;2.20;;;;;;;;;;5090166;28;20020;-61
2023/06/08 02:10:11;;;;;;;3.57;2.67;;;;;;;;;;5104846;28;20445;-61
2023/06/08 02:12:38;;;;;;;12.60;2.80;;;;;;;;;;5089096;28;20051;-61
2023/06/08 02:15:05;;;;;;;3.07;2.40;;;;;;;;;;5101445;28;20034;-61
2023/06/08 02:17:35;;;;;;;4.10;2.97;;;;;;;;;;5110181;28;20020;-61
2023/06/08 02:20:06;;;;;;;6.07;3.57;;;;;;;;;;5093914;28;20051;-61
2023/06/08 02:22:35;;;;;;;7.03;3.43;;;;;;;;;;5094128;28;20165;-61
2023/06/08 02:25:02;;;;;;;4.37;3.40;;;;;;;;;;5093884;28;20032;-61
2023/06/08 02:27:29;;;;;;;6.17;3.77;;;;;;;;;;5089453;28;20020;-61
2023/06/08 02:29:57;;;;;;;10.20;3.43;;;;;;;;;;5089694;28;20034;-61
2023/06/08 02:32:24;;;;;;;7.53;3.23;;;;;;;;;;5090020;28;20019;-61
2023/06/08 02:34:55;;;;;;;6.10;3.50;;;;;;;;;;5106474;28;20377;-61
2023/06/08 02:37:23;;;;;;;13.47;3.40;;;;;;;;;;5111664;28;20382;-61
2023/06/08 02:39:50;;;;;;;5.47;3.40;;;;;;;;;;5096046;28;20070;-62
2023/06/08 02:42:18;;;;;;;5.30;3.10;;;;;;;;;;5093527;28;20020;-61
2023/06/08 02:44:47;;;;;;;4.10;2.43;;;;;;;;;;5099903;28;20123;-61
2023/06/08 02:47:15;;;;;;;4.93;3.30;;;;;;;;;;5113915;28;20431;-61
2023/06/08 02:49:42;;;;;;;4.07;2.63;;;;;;;;;;5095312;28;20421;-61
2023/06/08 02:52:08;;;;;;;3.70;2.77;;;;;;;;;;5088582;28;20550;-61
2023/06/08 02:54:36;;;;;;;4.90;3.07;;;;;;;;;;5088095;28;20038;-62
2023/06/08 02:57:03;;;;;;;2.93;2.10;;;;;;;;;;5103788;28;20151;-61
2023/06/08 02:59:31;;;;;;;5.17;3.03;;;;;;;;;;5108459;28;20059;-61
2023/06/08 03:01:58;;;;;;;12.17;3.27;;;;;;;;;;5112265;28;20012;-61
2023/06/08 03:04:26;;;;;;;4.83;3.27;;;;;;;;;;5097491;28;20020;-61
2023/06/08 03:06:53;;;;;;;6.00;2.70;;;;;;;;;;5113329;28;20023;-61
2023/06/08 03:09:21;;;;;;;3.57;2.93;;;;;;;;;;5111434;28;20093;-61
2023/06/08 03:11:48;;;;;;;3.87;2.90;;;;;;;;;;5108786;28;20031;-62
2023/06/08 03:14:16;;;;;;;3.90;2.10;;;;;;;;;;5107740;28;20474;-62
2023/06/08 03:16:44;;;;;;;4.40;3.20;;;;;;;;;;5088075;28;20107;-61
2023/06/08 03:19:11;;;;;;;4.10;2.47;;;;;;;;;;5087516;28;20081;-61
2023/06/08 03:21:38;;;;;;;12.50;3.23;;;;;;;;;;5090026;28;20055;-60
2023/06/08 03:24:05;;;;;;;4.23;3.03;;;;;;;;;;5111553;28;20097;-61
2023/06/08 03:26:32;;;;;;;3.43;2.80;;;;;;;;;;5111214;28;20140;-61
2023/06/08 03:28:58;;;;;;;4.70;2.90;;;;;;;;;;5092767;28;20023;-61
2023/06/08 03:31:25;;;;;;;4.83;3.47;;;;;;;;;;5092911;28;20479;-61
2023/06/08 03:33:52;;;;;;;5.23;3.40;;;;;;;;;;5090680;28;20092;-61
2023/06/08 03:36:19;;;;;;;3.60;2.60;;;;;;;;;;5099501;28;20032;-61
2023/06/08 03:38:46;;;;;;;4.87;3.07;;;;;;;;;;5088194;28;20120;-61
2023/06/08 03:41:13;;;;;;;14.10;4.23;;;;;;;;;;5107760;28;20359;-61
2023/06/08 03:43:40;;;;;;;3.80;2.53;;;;;;;;;;5096095;28;20047;-61
2023/06/08 03:46:07;;;;;;;6.97;3.17;;;;;;;;;;5092492;28;20036;-61
2023/06/08 03:48:33;;;;;;;3.90;3.30;;;;;;;;;;5104884;28;20023;-61
2023/06/08 03:51:00;;;;;;;4.93;3.57;;;;;;;;;;5112524;28;20128;-61
2023/06/08 03:53:27;;;;;;;7.83;4.70;;;;;;;;;;5098308;28;20016;-61
2023/06/08 03:55:54;;;;;;;4.73;3.97;;;;;;;;;;5091136;28;20027;-62
2023/06/08 03:58:21;;;;;;;9.87;4.13;;;;;;;;;;5107164;28;20034;-61
2023/06/08 04:00:49;;;;;;;14.57;4.97;;;;;;;;;;5107360;28;20119;-60
2023/06/08 04:03:15;;;;;;;9.00;4.20;;;;;;;;;;5097980;28;20031;-61
2023/06/08 04:05:42;;;;;;;6.73;4.07;;;;;;;;;;5101254;28;20024;-60
2023/06/08 04:08:09;;;;;;;5.87;3.83;;;;;;;;;;5091890;28;20024;-62
2023/06/08 04:10:36;;;;;;;4.13;3.33;;;;;;;;;;5092467;28;20040;-61
2023/06/08 04:13:02;;;;;;;7.13;5.17;;;;;;;;;;5109591;28;20035;-61
2023/06/08 04:15:30;;;;;;;5.03;4.03;;;;;;;;;;5112119;28;20047;-61
2023/06/08 04:17:56;;;;;;;4.83;3.43;;;;;;;;;;5112304;28;20063;-61
2023/06/08 04:20:23;;;;;;;4.60;3.60;;;;;;;;;;5099273;28;20109;-61
2023/06/08 04:22:50;;;;;;;6.50;3.70;;;;;;;;;;5086533;28;20028;-61
2023/06/08 04:25:17;;;;;;;5.87;3.47;;;;;;;;;;5106009;28;20102;-61
2023/06/08 04:27:44;;;;;;;5.80;4.10;;;;;;;;;;5105026;28;20072;-61
2023/06/08 04:30:11;;;;;;;12.10;3.73;;;;;;;;;;5112010;28;20129;-61
2023/06/08 04:32:37;;;;;;;3.50;2.50;;;;;;;;;;5111832;28;20106;-61
2023/06/08 04:35:05;;;;;;;4.00;3.10;;;;;;;;;;5112294;28;20083;-61
2023/06/08 04:37:32;;;;;;;5.00;3.03;;;;;;;;;;5108430;28;20481;-62
2023/06/08 04:39:58;;;;;;;4.07;3.13;;;;;;;;;;5094996;28;20023;-61
2023/06/08 04:42:27;;;;;;;5.10;3.47;;;;;;;;;;5105179;28;20042;-61
2023/06/08 04:44:54;;;;;;;4.93;3.37;;;;;;;;;;5106169;28;20027;-61
2023/06/08 04:47:21;;;;;;;6.60;3.27;;;;;;;;;;5106742;28;20474;-62
2023/06/08 04:49:47;;;;;;;3.10;2.10;;;;;;;;;;5087435;28;20493;-61
2023/06/08 04:52:15;;;;;;;4.63;3.00;;;;;;;;;;5089713;28;20024;-63
2023/06/08 04:54:42;;;;;;;4.07;3.07;;;;;;;;;;5091860;28;20024;-61
2023/06/08 04:57:09;;;;;;;5.60;3.73;;;;;;;;;;5105078;28;20474;-61
2023/06/08 04:59:38;;;;;;;8.30;4.03;;;;;;;;;;5109421;28;20035;-61
2023/06/08 05:02:06;;;;;;;5.63;2.67;;;;;;;;;;5095278;28;20686;-60
2023/06/08 05:04:32;;;;;;;4.37;2.77;;;;;;;;;;5088252;28;20028;-60
2023/06/08 05:06:59;;;;;;;5.27;2.47;;;;;;;;;;5086578;28;20024;-62
2023/06/08 05:09:26;;;;;;;5.07;2.83;;;;;;;;;;5085999;28;20427;-60
2023/06/08 05:11:53;;;;;;;3.83;2.77;;;;;;;;;;5086427;28;20426;-61
2023/06/08 05:14:20;;;;;;;4.07;2.73;;;;;;;;;;5089309;28;20483;-61
2023/06/08 05:16:47;;;;;;;4.47;2.63;;;;;;;;;;5091820;28;20097;-60
2023/06/08 05:19:13;;;;;;;4.23;3.23;;;;;;;;;;5092687;28;20491;-60
2023/06/08 05:21:41;;;;;;;2.53;2.20;;;;;;;;;;5091818;28;20087;-60
2023/06/08 05:24:08;;;;;;;5.67;3.43;;;;;;;;;;5093327;28;20011;-61
2023/06/08 05:26:35;;;;;;;4.83;3.17;;;;;;;;;;5112332;28;20023;-61
2023/06/08 05:29:02;;;;;;;2.80;2.13;;;;;;;;;;5108648;28;20496;-61
2023/06/08 05:31:29;;;;;;;6.03;2.70;;;;;;;;;;5107646;28;20066;-61
2023/06/08 05:33:56;;;;;;;2.60;2.03;;;;;;;;;;5107293;28;20023;-61
2023/06/08 05:36:23;;;;;;;8.40;2.60;;;;;;;;;;5091324;28;20012;-61
2023/06/08 05:38:50;;;;;;;2.47;1.70;;;;;;;;;;5095129;28;20485;-60
2023/06/08 05:41:17;;;;;;;5.23;3.67;;;;;;;;;;5108028;28;20032;-60
2023/06/08 05:43:44;;;;;;;4.03;2.37;;;;;;;;;;5097097;28;20036;-62
2023/06/08 05:46:11;;;;;;;3.73;2.53;;;;;;;;;;5094639;28;20088;-61
2023/06/08 05:48:38;;;;;;;12.10;2.57;;;;;;;;;;5076494;28;20845;-61
2023/06/08 05:51:05;;;;;;;4.17;3.00;;;;;;;;;;5081111;28;20161;-60
2023/06/08 05:53:32;;;;;;;5.93;3.77;;;;;;;;;;5089092;28;20028;-61
2023/06/08 05:55:59;;;;;;;5.60;3.70;;;;;;;;;;5091593;28;20035;-61
2023/06/08 05:58:25;;;;;;;10.93;4.87;;;;;;;;;;5110261;28;20097;-61
2023/06/08 06:00:52;;;;;;;4.10;2.97;;;;;;;;;;5113346;28;20036;-61
2023/06/08 06:03:19;;;;;;;4.57;3.20;;;;;;;;;;5079209;28;20055;-60
2023/06/08 06:05:46;;;;;;;5.30;3.10;;;;;;;;;;5099557;28;20059;-61
2023/06/08 06:08:13;;;;;;;5.40;3.67;;;;;;;;;;5114525;28;20027;-60
2023/06/08 06:10:40;;;;;;;5.50;2.60;;;;;;;;;;5113764;28;20051;-61
2023/06/08 06:13:07;;;;;;;3.80;2.27;;;;;;;;;;5101133;28;20024;-61
2023/06/08 06:15:33;;;;;;;6.70;4.20;;;;;;;;;;5104646;28;20038;-60
2023/06/08 06:18:00;;;;;;;6.47;3.73;;;;;;;;;;5092806;28;20090;-61
2023/06/08 06:20:29;;;;;;;5.97;3.57;;;;;;;;;;5088337;28;20036;-61
2023/06/08 06:22:56;;;;;;;7.40;3.60;;;;;;;;;;5104959;28;20077;-61
2023/06/08 06:25:24;;;;;;;5.53;3.77;;;;;;;;;;5114591;28;20026;-61
2023/06/08 06:27:51;;;;;;;8.10;4.50;;;;;;;;;;5113545;28;20521;-61
2023/06/08 06:30:17;;;;;;;8.10;3.50;;;;;;;;;;5113548;28;20040;-61
2023/06/08 06:32:44;;;;;;;9.20;4.20;;;;;;;;;;5107111;28;20024;-61
2023/06/08 06:35:11;;;;;;;5.53;3.67;;;;;;;;;;5094317;28;20023;-60
2023/06/08 06:37:38;;;;;;;5.80;3.47;;;;;;;;;;5107498;28;20482;-61
2023/06/08 06:40:06;;;;;;;4.73;2.80;;;;;;;;;;5108122;28;20097;-61
2023/06/08 06:42:37;;;;;;;13.07;3.43;;;;;;;;;;5102678;28;20031;-61
2023/06/08 06:45:04;;;;;;;11.03;4.30;;;;;;;;;;5101283;28;20401;-60
2023/06/08 06:47:31;;;;;;;4.93;3.37;;;;;;;;;;5101014;28;20543;-60
2023/06/08 06:49:58;;;;;;;5.53;3.37;;;;;;;;;;5093613;28;20030;-61
2023/06/08 06:52:25;;;;;;;4.60;3.43;;;;;;;;;;5094629;28;20031;-61
2023/06/08 06:54:51;;;;;;;3.83;3.07;;;;;;;;;;5093179;28;20028;-60
2023/06/08 06:57:18;;;;;;;9.93;3.70;;;;;;;;;;5088888;28;20104;-61
2023/06/08 06:59:46;;;;;;;4.70;3.30;;;;;;;;;;5108382;28;20461;-61
2023/06/08 07:02:12;;;;;;;5.00;3.53;;;;;;;;;;5107523;28;20482;-61
2023/06/08 07:04:40;;;;;;;6.37;2.87;;;;;;;;;;5106466;28;20470;-60
2023/06/08 07:07:07;;;;;;;4.33;3.20;;;;;;;;;;5111895;28;20028;-61
2023/06/08 07:09:34;;;;;;;7.00;3.43;;;;;;;;;;5113795;28;20015;-60
2023/06/08 07:12:00;;;;;;;4.33;3.77;;;;;;;;;;5112736;28;20030;-61
2023/06/08 07:14:27;;;;;;;4.40;3.13;;;;;;;;;;5111098;28;20016;-60
2023/06/08 07:16:54;;;;;;;31.97;3.47;;;;;;;;;;5113325;28;20074;-60
2023/06/08 07:19:21;;;;;;;4.57;3.37;;;;;;;;;;5097505;28;20888;-60
2023/06/08 07:21:47;;;;;;;5.33;3.43;;;;;;;;;;5087723;28;20024;-61
2023/06/08 07:24:14;;;;;;;5.83;4.37;;;;;;;;;;5088632;28;20030;-60
2023/06/08 07:26:43;;;;;;;4.07;3.07;;;;;;;;;;5087668;28;20077;-61
2023/06/08 07:29:10;;;;;;;4.57;3.73;;;;;;;;;;5090211;28;20035;-61
2023/06/08 07:31:39;;;;;;;8.67;4.23;;;;;;;;;;5092926;28;20022;-60
2023/06/08 07:34:08;;;;;;;4.67;3.07;;;;;;;;;;5105920;28;20442;-60
2023/06/08 07:36:35;;;;;;;4.63;3.33;;;;;;;;;;5110452;28;21037;-61
2023/06/08 07:39:03;;;;;;;4.83;4.00;;;;;;;;;;5112814;28;20053;-60
2023/06/08 07:41:31;;;;;;;6.83;4.40;;;;;;;;;;5109400;28;20063;-61
2023/06/08 07:43:57;;;;;;;7.90;3.53;;;;;;;;;;5092387;28;20031;-61
2023/06/08 07:46:25;;;;;;;4.73;3.47;;;;;;;;;;5087177;28;20055;-60
2023/06/08 07:48:51;;;;;;;5.87;3.10;;;;;;;;;;5087130;28;20359;-60
2023/06/08 07:51:18;;;;;;;8.53;3.83;;;;;;;;;;5107095;28;20027;-60
2023/06/08 07:53:45;;;;;;;6.33;3.77;;;;;;;;;;5112360;28;20115;-61
2023/06/08 07:56:12;;;;;;;4.07;2.80;;;;;;;;;;5102232;28;20035;-61
2023/06/08 07:58:39;;;;;;;5.43;3.57;;;;;;;;;;5092424;28;20424;-60
2023/06/08 08:01:06;;;;;;;5.10;3.53;;;;;;;;;;5093262;28;20032;-61
2023/06/08 08:03:37;;;;;;;5.93;4.20;;;;;;;;;;5104589;28;20475;-60
2023/06/08 08:06:04;;;;;;;9.43;4.27;;;;;;;;;;5095503;28;20445;-60
2023/06/08 08:08:31;;;;;;;6.07;3.73;;;;;;;;;;5097618;28;20028;-60
2023/06/08 08:10:58;;;;;;;5.17;3.87;;;;;;;;;;5086789;28;20035;-61
2023/06/08 08:13:25;;;;;;;5.57;4.20;;;;;;;;;;5099338;28;20084;-60
2023/06/08 08:15:51;;;;;;;6.00;3.67;;;;;;;;;;5108276;28;20024;-60
2023/06/08 08:18:18;;;;;;;5.40;4.07;;;;;;;;;;5098793;28;20031;-60
2023/06/08 08:20:45;;;;;;;6.30;4.10;;;;;;;;;;5111639;28;20046;-60
2023/06/08 08:23:12;;;;;;;6.83;3.43;;;;;;;;;;5102532;28;20024;-61
2023/06/08 08:25:40;;;;;;;7.50;3.93;;;;;;;;;;5101217;28;20177;-61
2023/06/08 08:28:07;;;;;;;8.20;4.77;;;;;;;;;;5087673;28;20474;-60
2023/06/08 08:30:35;;;;;;;7.03;4.37;;;;;;;;;;5098545;28;20024;-61
2023/06/08 08:33:02;;;;;;;4.43;3.43;;;;;;;;;;5094868;28;20067;-60
2023/06/08 08:35:31;;;;;;;6.33;4.30;;;;;;;;;;5099425;28;20027;-61
2023/06/08 08:37:58;;;;;;;5.03;3.17;;;;;;;;;;5109934;28;20031;-60
2023/06/08 08:40:25;;;;;;;5.67;4.23;;;;;;;;;;5111875;28;20063;-60
2023/06/08 08:42:57;;;;;;;8.50;3.27;;;;;;;;;;5112081;28;20023;-60
2023/06/08 08:45:31;;;;;;;5.93;3.60;;;;;;;;;;5112154;28;20028;-60
2023/06/08 08:47:58;;;;;;;5.53;4.10;;;;;;;;;;5108231;28;20039;-60
2023/06/08 08:50:26;;;;;;;7.03;3.97;;;;;;;;;;5106857;28;20019;-60
2023/06/08 08:52:56;;;;;;;4.83;3.20;;;;;;;;;;5103581;28;20439;-60
2023/06/08 08:55:27;;;;;;;4.27;3.30;;;;;;;;;;5086431;28;20028;-60
2023/06/08 08:58:00;;;;;;;12.93;3.67;;;;;;;;;;5096262;28;20039;-60
2023/06/08 09:00:27;;;;;;;14.90;3.93;;;;;;;;;;5116039;28;20122;-60
2023/06/08 09:02:54;;;;;;;5.20;3.57;;;;;;;;;;5108891;28;20027;-60
2023/06/08 09:05:21;;;;;;;4.07;3.13;;;;;;;;;;5095696;28;20078;-60
2023/06/08 09:07:48;;;;;;;7.10;4.10;;;;;;;;;;5095299;28;20085;-60
2023/06/08 09:10:17;;;;;;;4.77;3.53;;;;;;;;;;5110932;28;20175;-60
2023/06/08 09:12:46;;;;;;;5.43;3.43;;;;;;;;;;5088872;28;20439;-60
2023/06/08 09:15:14;;;;;;;4.07;2.97;;;;;;;;;;5090211;28;20380;-60
2023/06/08 09:17:41;;;;;;;4.73;3.33;;;;;;;;;;5090088;28;20074;-61
2023/06/08 09:20:10;;;;;;;4.60;2.70;;;;;;;;;;5091791;28;20432;-61
2023/06/08 09:22:37;;;;;;;6.10;4.13;;;;;;;;;;5099863;28;20102;-60
2023/06/08 09:25:05;;;;;;;4.37;3.63;;;;;;;;;;5102153;28;20032;-60
2023/06/08 09:27:32;;;;;;;5.50;3.60;;;;;;;;;;5095337;28;20458;-60
2023/06/08 09:30:00;;;;;;;3.83;2.90;;;;;;;;;;5104442;28;20557;-60
2023/06/08 09:32:33;;;;;;;6.13;4.30;;;;;;;;;;5112461;28;20016;-61
2023/06/08 09:35:04;;;;;;;4.90;3.20;;;;;;;;;;5090331;28;20050;-60
2023/06/08 09:37:36;;;;;;;6.80;4.40;;;;;;;;;;5089202;28;20065;-60
2023/06/08 09:40:04;;;;;;;4.80;3.60;;;;;;;;;;5090616;28;20064;-61
2023/06/08 09:42:42;;;;;;;8.17;5.53;;;;;;;;;;5090304;28;20402;-60
2023/06/08 09:45:10;;;;;;;12.93;5.57;;;;;;;;;;5094939;28;20355;-60
2023/06/08 09:47:37;;;;;;;20.57;11.77;;;;;;;;;;5094547;28;20012;-60
2023/06/08 09:50:06;;;;;;;14.63;9.23;;;;;;;;;;5095634;28;20020;-60
2023/06/08 09:52:34;;;;;;;13.57;9.33;;;;;;;;;;5097045;28;20043;-60
2023/06/08 09:55:01;;;;;;;30.37;11.70;;;;;;;;;;5107545;28;20024;-60
2023/06/08 09:57:28;;;;;;;16.10;9.53;;;;;;;;;;5090885;28;20351;-60
2023/06/08 10:00:17;;;;;;;15.67;8.83;;;;;;;;;;5108462;28;20028;-60
2023/06/08 10:02:56;;;;;;;18.87;6.40;;;;;;;;;;5107363;28;20062;-60
2023/06/08 10:05:23;;;;;;;20.00;6.70;;;;;;;;;;5090583;28;20021;-60
2023/06/08 10:07:51;;;;;;;12.30;6.70;;;;;;;;;;5098845;28;20378;-60
2023/06/08 10:10:22;;;;;;;7.87;5.23;;;;;;;;;;5114479;28;20482;-60
2023/06/08 10:12:49;;;;;;;8.90;5.27;;;;;;;;;;5103566;28;20059;-60
2023/06/08 10:15:16;;;;;;;6.17;4.10;;;;;;;;;;5095030;28;20028;-60
2023/06/08 10:17:44;;;;;;;6.80;5.00;;;;;;;;;;5111982;28;20527;-60
2023/06/08 10:20:12;;;;;;;6.27;4.43;;;;;;;;;;5100979;28;20479;-60
2023/06/08 10:22:40;;;;;;;6.50;4.40;;;;;;;;;;5088646;28;20090;-60
2023/06/08 10:25:08;;;;;;;9.20;5.67;;;;;;;;;;5101491;28;20036;-60
2023/06/08 10:27:35;;;;;;;5.73;3.70;;;;;;;;;;5103525;28;20420;-60
2023/06/08 10:30:04;;;;;;;5.87;3.83;;;;;;;;;;5113883;28;20038;-60
2023/06/08 10:32:31;;;;;;;6.27;4.20;;;;;;;;;;5111830;28;20058;-60
2023/06/08 10:34:58;;;;;;;12.53;4.57;;;;;;;;;;5104579;28;20024;-60
2023/06/08 10:37:27;;;;;;;4.60;3.90;;;;;;;;;;5112552;28;20027;-61
2023/06/08 10:39:54;;;;;;;6.23;4.20;;;;;;;;;;5077691;28;20100;-60
2023/06/08 10:42:21;;;;;;;5.10;3.53;;;;;;;;;;5108667;28;20019;-60
2023/06/08 10:44:57;;;;;;;8.10;4.60;;;;;;;;;;5106483;28;20390;-60
2023/06/08 10:47:25;;;;;;;5.57;3.87;;;;;;;;;;5108077;28;20028;-60
2023/06/08 10:49:56;;;;;;;15.43;5.30;;;;;;;;;;5109452;28;20051;-60
2023/06/08 10:52:23;;;;;;;6.30;4.37;;;;;;;;;;5113795;28;20027;-60
2023/06/08 10:55:06;;;;;;;4.40;3.27;;;;;;;;;;5113559;28;20023;-61
2023/06/08 10:57:41;;;;;;;7.33;4.10;;;;;;;;;;5097915;28;20023;-60
2023/06/08 11:00:27;;;;;;;4.83;3.33;;;;;;;;;;5113333;28;20477;-60
2023/06/08 11:02:54;;;;;;;6.90;3.83;;;;;;;;;;5110245;28;20096;-60
2023/06/08 11:05:23;;;;;;;5.90;4.00;;;;;;;;;;5107183;28;20032;-60
2023/06/08 11:07:50;;;;;;;3.93;3.33;;;;;;;;;;5107459;28;20034;-60
2023/06/08 11:10:17;;;;;;;5.30;3.83;;;;;;;;;;5106942;28;20034;-60
2023/06/08 11:12:43;;;;;;;5.37;4.07;;;;;;;;;;5094433;28;20479;-60
2023/06/08 11:15:10;;;;;;;6.90;3.70;;;;;;;;;;5094800;28;20077;-60
2023/06/08 11:17:43;;;;;;;5.00;4.00;;;;;;;;;;5111663;28;20028;-60
2023/06/08 11:20:10;;;;;;;13.83;4.00;;;;;;;;;;5112678;28;20031;-60
2023/06/08 11:22:41;;;;;;;6.87;5.03;;;;;;;;;;5112341;28;20028;-60
2023/06/08 11:25:08;;;;;;;5.30;4.07;;;;;;;;;;5108033;28;20107;-61
2023/06/08 11:27:43;;;;;;;4.43;3.47;;;;;;;;;;5095763;28;20111;-60
2023/06/08 11:30:10;;;;;;;5.50;4.68;;;;;;;;;;5102405;28;20043;-61
2023/06/08 11:32:38;;;;;;;6.37;3.97;;;;;;;;;;5107634;28;20031;-61
2023/06/08 11:35:05;;;;;;;7.10;4.13;;;;;;;;;;5095497;28;20685;-60
2023/06/08 11:37:36;;;;;;;4.67;3.87;;;;;;;;;;5093816;28;20024;-60
2023/06/08 11:40:10;;;;;;;5.03;3.20;;;;;;;;;;5105442;28;20059;-60
2023/06/08 11:42:37;;;;;;;9.75;5.38;;;;;;;;;;5112382;28;20052;-61
2023/06/08 11:45:05;;;;;;;7.70;4.30;;;;;;;;;;5112197;28;20031;-60
2023/06/08 11:47:32;;;;;;;6.07;4.10;;;;;;;;;;5101136;28;20040;-60
2023/06/08 11:50:01;;;;;;;5.03;3.60;;;;;;;;;;5087089;28;20024;-60
2023/06/08 11:52:30;;;;;;;6.40;4.80;;;;;;;;;;5087010;28;20032;-60
2023/06/08 11:55:03;;;;;;;5.17;4.00;;;;;;;;;;5086774;28;20027;-60
2023/06/08 11:57:40;;;;;;;5.97;3.23;;;;;;;;;;5090601;28;20020;-60
2023/06/08 12:00:09;;;;;;;24.00;4.23;;;;;;;;;;5106744;28;20093;-60
2023/06/08 12:02:39;;;;;;;4.07;3.03;;;;;;;;;;5095026;28;20134;-60
2023/06/08 12:05:15;;;;;;;5.20;3.13;;;;;;;;;;5107725;28;20026;-60
2023/06/08 12:07:53;;;;;;;4.23;2.93;;;;;;;;;;5093303;28;20097;-60
2023/06/08 12:10:20;;;;;;;4.30;3.33;;;;;;;;;;5097135;28;20047;-60
2023/06/08 12:12:48;;;;;;;16.50;7.90;;;;;;;;;;5107269;28;20031;-60
2023/06/08 12:15:16;;;;;;;8.67;5.20;;;;;;;;;;5106882;28;20055;-60
2023/06/08 12:17:43;;;;;;;5.17;3.53;;;;;;;;;;5105705;28;20525;-60
2023/06/08 12:20:10;;;;;;;8.10;4.93;;;;;;;;;;5108102;28;20112;-60
2023/06/08 12:22:37;;;;;;;20.33;5.00;;;;;;;;;;5112200;28;20329;-60
2023/06/08 12:25:04;;;;;;;4.63;3.20;;;;;;;;;;5103048;28;20050;-60
2023/06/08 12:27:36;;;;;;;6.60;4.53;;;;;;;;;;5091997;28;20031;-60
2023/06/08 12:30:03;;;;;;;5.00;3.83;;;;;;;;;;5103411;28;20481;-60
2023/06/08 12:32:32;;;;;;;6.13;4.77;;;;;;;;;;5094096;28;20032;-60
2023/06/08 12:35:01;;;;;;;5.47;4.30;;;;;;;;;;5093413;28;20020;-60
2023/06/08 12:37:29;;;;;;;5.67;3.93;;;;;;;;;;5110678;28;20054;-61
2023/06/08 12:39:56;;;;;;;5.30;3.93;;;;;;;;;;5100013;28;20505;-60
2023/06/08 12:42:23;;;;;;;6.60;4.10;;;;;;;;;;5093477;28;20020;-60
2023/06/08 12:44:50;;;;;;;5.07;4.20;;;;;;;;;;5096861;28;20115;-60
2023/06/08 12:47:17;;;;;;;17.30;5.27;;;;;;;;;;5114741;28;20031;-61
2023/06/08 12:49:44;;;;;;;8.10;5.30;;;;;;;;;;5092016;28;20080;-60
2023/06/08 12:52:10;;;;;;;9.13;4.67;;;;;;;;;;5114693;28;20024;-60
2023/06/08 12:54:37;;;;;;;7.60;4.47;;;;;;;;;;5112696;28;20046;-61
2023/06/08 12:57:04;;;;;;;4.80;4.07;;;;;;;;;;5098737;28;20103;-60
2023/06/08 12:59:31;;;;;;;8.37;4.83;;;;;;;;;;5091255;28;20046;-61
2023/06/08 13:01:58;;;;;;;6.53;4.20;;;;;;;;;;5090559;28;20106;-60
2023/06/08 13:04:25;;;;;;;4.80;3.93;;;;;;;;;;5095647;28;20032;-60
2023/06/08 13:06:53;;;;;;;5.60;3.83;;;;;;;;;;5095166;28;20113;-60
2023/06/08 13:09:20;;;;;;;6.57;4.37;;;;;;;;;;5095578;28;20039;-60
2023/06/08 13:11:47;;;;;;;4.63;3.73;;;;;;;;;;5096470;28;20032;-60
2023/06/08 13:14:13;;;;;;;7.13;4.67;;;;;;;;;;5095306;28;20028;-60
2023/06/08 13:16:40;;;;;;;7.33;4.60;;;;;;;;;;5099293;28;20098;-60
2023/06/08 13:19:07;;;;;;;3.90;3.33;;;;;;;;;;5110141;28;20032;-60
2023/06/08 13:21:34;;;;;;;7.73;4.13;;;;;;;;;;5109938;28;20027;-60
2023/06/08 13:24:03;;;;;;;38.93;5.10;;;;;;;;;;5109692;28;20080;-60
2023/06/08 13:26:30;;;;;;;5.97;4.20;;;;;;;;;;5109748;28;20020;-61
2023/06/08 13:28:57;;;;;;;14.27;4.20;;;;;;;;;;5114893;28;20036;-60
2023/06/08 13:31:25;;;;;;;7.47;4.37;;;;;;;;;;5115120;28;20023;-60
2023/06/08 13:33:52;;;;;;;8.03;4.40;;;;;;;;;;5104005;28;20016;-61
2023/06/08 13:36:19;;;;;;;10.50;5.60;;;;;;;;;;5113239;28;20028;-60
2023/06/08 13:38:45;;;;;;;5.67;4.67;;;;;;;;;;5111333;28;20066;-60
2023/06/08 13:41:12;;;;;;;5.23;4.23;;;;;;;;;;5108956;28;20035;-60
2023/06/08 13:43:40;;;;;;;6.17;4.70;;;;;;;;;;5109152;28;20032;-62
2023/06/08 13:46:07;;;;;;;6.87;5.37;;;;;;;;;;5053465;28;20515;-61
2023/06/08 13:48:33;;;;;;;7.30;5.80;;;;;;;;;;5098086;28;20034;-61
2023/06/08 13:51:00;;;;;;;7.13;4.40;;;;;;;;;;5114762;28;20474;-61
2023/06/08 13:53:27;;;;;;;8.03;6.27;;;;;;;;;;5114824;28;20470;-60
2023/06/08 13:55:54;;;;;;;11.73;6.00;;;;;;;;;;5114473;28;20023;-61
2023/06/08 13:58:21;;;;;;;9.47;7.27;;;;;;;;;;5095548;28;20101;-61
2023/06/08 14:00:48;;;;;;;9.97;6.00;;;;;;;;;;5108404;28;20479;-60
2023/06/08 14:03:15;;;;;;;14.80;7.33;;;;;;;;;;5089022;28;20637;-61
2023/06/08 14:05:42;;;;;;;6.23;5.27;;;;;;;;;;5089054;28;20459;-61
2023/06/08 14:08:08;;;;;;;7.57;6.23;;;;;;;;;;5089109;28;20088;-60
2023/06/08 14:10:35;;;;;;;9.60;6.17;;;;;;;;;;5089228;28;20036;-61
2023/06/08 14:13:02;;;;;;;10.97;4.73;;;;;;;;;;5094445;28;20028;-61
2023/06/08 14:15:29;;;;;;;7.23;5.47;;;;;;;;;;5094087;28;20016;-61
2023/06/08 14:17:57;;;;;;;7.23;4.90;;;;;;;;;;5094282;28;20028;-61
2023/06/08 14:20:24;;;;;;;9.73;6.77;;;;;;;;;;5094004;28;20467;-62
2023/06/08 14:22:50;;;;;;;19.37;5.47;;;;;;;;;;5094232;28;20028;-61
2023/06/08 14:25:17;;;;;;;5.90;4.70;;;;;;;;;;5088457;28;20028;-61
2023/06/08 14:27:44;;;;;;;4.53;3.90;;;;;;;;;;5088737;28;20024;-61
2023/06/08 14:30:11;;;;;;;5.70;4.43;;;;;;;;;;5088350;28;20467;-61
2023/06/08 14:32:38;;;;;;;7.23;5.10;;;;;;;;;;5089076;28;20028;-61
2023/06/08 14:35:06;;;;;;;5.60;3.80;;;;;;;;;;5110921;28;20382;-61
2023/06/08 14:37:33;;;;;;;11.43;5.90;;;;;;;;;;5107698;28;20034;-61
2023/06/08 14:40:01;;;;;;;12.10;5.37;;;;;;;;;;5093525;28;20107;-61
2023/06/08 14:42:28;;;;;;;5.40;4.37;;;;;;;;;;5106703;28;20032;-62
2023/06/08 14:44:54;;;;;;;6.95;4.75;;;;;;;;;;5113144;28;20041;-61